This is the latest recevied weather packets stored in our database for station/object EA5JUX. If no packets are shown the sender has not sent any weather packets the latest 10 day(s).
| Time | Temp. | Humidity | Pressure | Rain* | Wind** | Luminosity | Snow |
|---|---|---|---|---|---|---|---|
| 1788007035 | 28.33° C | 57% | 1017.7 hPa | 0 mm | - | - | - |
| 1788006735 | 28.33° C | 57% | 1017.8 hPa | 0 mm | - | - | - |
| 1788006435 | 27.78° C | 59% | 1017.8 hPa | 0 mm | - | - | - |
| 1788006135 | 27.78° C | 56% | 1017.8 hPa | 0 mm | - | - | - |
| 1788005835 | 28.33° C | 56% | 1018 hPa | 0 mm | - | - | - |
| 1788005535 | 28.33° C | 56% | 1018 hPa | 0 mm | - | - | - |
| 1788005235 | 28.33° C | 53% | 1017.8 hPa | 0 mm | - | - | - |
| 1788004935 | 27.78° C | 54% | 1018.2 hPa | 0 mm | - | - | - |
| 1788004653 | 28.33° C | 56% | 1018.1 hPa | 0 mm | - | - | - |
| 1788004335 | 27.78° C | 57% | 1018.2 hPa | 0 mm | - | - | - |
| 1788004035 | 27.78° C | 55% | 1018.2 hPa | 0 mm | - | - | - |
| 1788003750 | 27.22° C | 58% | 1018.4 hPa | 0 mm | - | - | - |
| 1788003435 | 27.22° C | 57% | 1018.1 hPa | 0 mm | - | - | - |
| 1788003134 | 26.67° C | 59% | 1018.4 hPa | 0 mm | - | - | - |
| 1788002855 | 26.67° C | 59% | 1018.4 hPa | 0 mm | - | - | - |
| 1788002534 | 27.22° C | 59% | 1018.4 hPa | - | - | - | - |
| 1787881614 | 27.78° C | 50% | 1013.5 hPa | 0 mm | - | - | - |
| 1787881300 | 27.78° C | 51% | 1013.3 hPa | 0 mm | - | - | - |
| 1787881001 | 27.22° C | 53% | 1013.1 hPa | 0 mm | - | - | - |
| 1787880700 | 26.67° C | 58% | 1013.1 hPa | 0 mm | - | - | - |
| 1787880400 | 26.67° C | 58% | 1013.4 hPa | 0 mm | - | - | - |
| 1787880100 | 26.67° C | 57% | 1013.4 hPa | 0 mm | - | - | - |
| 1787879801 | 26.67° C | 58% | 1013.5 hPa | 0 mm | - | - | - |
| 1787879501 | 26.67° C | 58% | 1013.9 hPa | 0 mm | - | - | - |
| 1787879200 | 26.11° C | 59% | 1014.6 hPa | 0 mm | - | - | - |
* Rain latest hour (hover to see other rain measurements)
** Current wind speed in m/s (hover to see current wind gust speed)